createdAt,value
2023-01-19T00:00:39.101Z,2.88
2023-01-19T00:03:06.384Z,3.42
2023-01-19T00:05:34.010Z,3.30
2023-01-19T00:08:14.857Z,3.25
2023-01-19T00:10:43.570Z,3.58
2023-01-19T00:13:10.923Z,4.38
2023-01-19T00:15:37.810Z,4.53
2023-01-19T00:18:04.795Z,3.55
2023-01-19T00:20:32.990Z,3.92
2023-01-19T00:23:00.380Z,3.45
2023-01-19T00:25:27.787Z,2.90
2023-01-19T00:27:55.579Z,4.55
2023-01-19T00:30:24.791Z,3.08
2023-01-19T00:32:51.860Z,3.60
2023-01-19T00:35:20.663Z,2.50
2023-01-19T00:37:47.531Z,3.55
2023-01-19T00:40:14.826Z,2.97
2023-01-19T00:42:44.390Z,3.70
2023-01-19T00:45:14.672Z,3.45
2023-01-19T00:47:41.930Z,2.40
2023-01-19T00:50:11.857Z,3.05
2023-01-19T00:52:39.560Z,3.55
2023-01-19T00:55:09.777Z,4.78
2023-01-19T00:57:37.089Z,2.47
2023-01-19T01:00:13.091Z,3.47
2023-01-19T01:02:41.527Z,3.53
2023-01-19T01:05:09.988Z,3.88
2023-01-19T01:07:44.757Z,3.33
2023-01-19T01:10:15.024Z,4.40
2023-01-19T01:12:53.620Z,4.38
2023-01-19T01:15:26.627Z,3.13
2023-01-19T01:17:53.716Z,3.00
2023-01-19T01:20:28.149Z,2.42
2023-01-19T01:22:56.893Z,4.07
2023-01-19T01:25:26.209Z,3.20
2023-01-19T01:27:54.011Z,2.65
2023-01-19T01:30:21.689Z,3.50
2023-01-19T01:32:49.134Z,2.85
2023-01-19T01:35:16.923Z,3.35
2023-01-19T01:37:44.076Z,2.28
2023-01-19T01:40:14.403Z,2.97
2023-01-19T01:42:42.691Z,4.32
2023-01-19T01:45:36.231Z,2.63
2023-01-19T01:48:18.441Z,3.50
2023-01-19T01:51:10.201Z,2.10
2023-01-19T01:53:38.440Z,2.42
2023-01-19T01:56:09.853Z,3.07
2023-01-19T01:58:38.032Z,3.65
2023-01-19T02:01:24.809Z,3.03
2023-01-19T06:43:35.208Z,5.68
2023-01-19T06:46:02.473Z,4.70
2023-01-19T06:48:29.502Z,5.38
2023-01-19T06:50:58.623Z,5.60
2023-01-19T06:53:28.185Z,6.20
2023-01-19T06:56:03.240Z,3.38
2023-01-19T06:58:31.484Z,5.97
2023-01-19T07:01:08.023Z,6.40
2023-01-19T07:03:35.995Z,5.47
2023-01-19T07:06:03.056Z,4.90
2023-01-19T07:08:30.359Z,5.53
2023-01-19T07:11:25.949Z,4.57
2023-01-19T07:13:51.788Z,4.70
2023-01-19T07:16:19.050Z,5.00
2023-01-19T07:18:49.029Z,4.03
2023-01-19T07:21:15.998Z,5.57
2023-01-19T07:23:43.587Z,5.10
2023-01-19T07:26:10.788Z,6.30
2023-01-19T07:28:37.678Z,5.40
2023-01-19T07:31:04.991Z,5.88
2023-01-19T07:33:32.111Z,6.43
2023-01-19T07:35:58.980Z,4.25
2023-01-19T07:38:25.923Z,5.35
2023-01-19T07:41:00.518Z,5.78
2023-01-19T07:43:27.451Z,3.78
2023-01-19T07:45:58.956Z,6.22
2023-01-19T07:48:25.988Z,6.00
2023-01-19T07:50:53.245Z,4.35
2023-01-19T07:53:20.172Z,4.78
2023-01-19T07:55:47.533Z,4.90
2023-01-19T07:58:14.685Z,4.57
2023-01-19T08:00:57.605Z,5.96
2023-01-19T08:03:24.561Z,4.00
2023-01-19T08:05:53.281Z,6.38
2023-01-19T08:08:20.393Z,5.95
2023-01-19T08:10:50.822Z,5.32
2023-01-19T08:13:18.718Z,5.85
2023-01-19T08:15:45.652Z,5.00
2023-01-19T08:18:14.879Z,5.43
2023-01-19T08:20:41.856Z,6.13
2023-01-19T08:23:08.918Z,6.13
2023-01-19T08:25:44.627Z,3.55
2023-01-19T08:28:14.451Z,6.30
2023-01-19T08:30:44.027Z,6.15
2023-01-19T08:33:14.343Z,6.22
2023-01-19T08:35:43.806Z,4.95
2023-01-19T08:38:11.107Z,6.55
2023-01-19T08:40:39.724Z,6.75
2023-01-19T08:43:09.409Z,5.00
2023-01-19T08:45:38.236Z,4.18
2023-01-19T08:48:06.567Z,5.13
2023-01-19T08:50:34.533Z,4.90
2023-01-19T08:53:08.428Z,4.75
2023-01-19T08:55:36.708Z,5.20
2023-01-19T08:58:05.067Z,3.95
2023-01-19T09:00:38.030Z,4.47
2023-01-19T09:03:06.671Z,4.40
2023-01-19T09:05:37.439Z,5.15
2023-01-19T09:08:08.374Z,3.83
2023-01-19T09:10:37.932Z,4.88
2023-01-19T09:13:11.176Z,5.80
2023-01-19T09:15:39.298Z,5.05
2023-01-19T09:18:10.314Z,4.38
2023-01-19T09:20:39.231Z,5.35
2023-01-19T09:23:06.517Z,4.78
2023-01-19T09:25:33.403Z,3.70
2023-01-19T09:28:01.138Z,3.33
2023-01-19T09:30:28.278Z,4.57
2023-01-19T09:32:55.345Z,3.30
2023-01-19T09:35:22.221Z,4.15
2023-01-19T09:37:49.115Z,4.32
2023-01-19T09:40:18.898Z,4.15
2023-01-19T09:42:52.812Z,4.45
2023-01-19T09:45:36.265Z,3.33
2023-01-19T09:48:22.430Z,3.83
2023-01-19T09:50:49.921Z,3.22
2023-01-19T09:53:25.357Z,4.35
2023-01-19T09:55:52.545Z,3.40
2023-01-19T09:58:21.169Z,1.65
2023-01-19T10:00:59.287Z,3.67
2023-01-19T10:03:26.202Z,3.53
2023-01-19T10:05:59.102Z,3.42
2023-01-19T10:08:35.444Z,3.80
2023-01-19T10:11:02.359Z,2.97
2023-01-19T10:13:37.551Z,3.97
2023-01-19T10:16:15.391Z,3.15
2023-01-19T10:18:47.787Z,3.47
2023-01-19T10:21:14.494Z,3.30
2023-01-19T10:24:05.876Z,2.85
2023-01-19T10:26:41.494Z,3.20
2023-01-19T10:29:12.315Z,2.33
2023-01-19T10:31:41.373Z,3.35
2023-01-19T10:34:20.973Z,2.47
2023-01-19T10:36:53.894Z,2.85
2023-01-19T10:39:20.802Z,2.13
2023-01-19T10:41:52.708Z,2.30
2023-01-19T10:44:35.137Z,3.15
2023-01-19T10:47:02.518Z,2.60
2023-01-19T10:49:40.774Z,2.13
2023-01-19T10:52:19.210Z,3.45
2023-01-19T10:54:48.552Z,3.00
2023-01-19T10:57:28.990Z,2.92
2023-01-19T10:59:55.846Z,2.78
2023-01-19T11:02:27.752Z,2.70
2023-01-19T11:05:00.216Z,2.30
2023-01-19T11:07:27.086Z,2.10
2023-01-19T11:10:27.901Z,2.30
2023-01-19T11:13:12.927Z,2.25
2023-01-19T11:15:43.951Z,2.15
2023-01-19T11:18:28.750Z,2.25
2023-01-19T11:20:58.221Z,3.13
2023-01-19T11:23:44.139Z,2.25
2023-01-19T11:26:33.848Z,1.70
2023-01-19T11:29:03.380Z,1.92
2023-01-19T11:31:30.228Z,1.63
2023-01-19T11:34:04.415Z,2.35
2023-01-19T11:36:34.675Z,2.13
2023-01-19T11:39:28.439Z,2.13
2023-01-19T11:42:04.989Z,2.38
2023-01-19T11:44:36.625Z,1.83
2023-01-19T11:47:12.547Z,2.58
2023-01-19T11:49:52.371Z,1.77
2023-01-19T11:52:37.757Z,1.65
2023-01-19T11:55:29.356Z,2.08
2023-01-19T11:57:56.684Z,2.35
2023-01-19T12:00:37.458Z,1.70
2023-01-19T12:03:22.365Z,2.30
2023-01-19T12:05:53.083Z,2.30
2023-01-19T12:08:32.099Z,1.83
2023-01-19T12:11:01.739Z,1.98
2023-01-19T12:13:30.704Z,1.33
2023-01-19T12:18:54.998Z,1.35
2023-01-19T12:21:22.237Z,1.55
2023-01-19T12:24:10.173Z,1.50
2023-01-19T12:26:54.692Z,1.77
2023-01-19T12:29:25.252Z,1.08
2023-01-19T12:32:10.814Z,1.38
2023-01-19T12:34:46.776Z,1.50
2023-01-19T12:37:31.585Z,1.20
2023-01-19T12:40:01.718Z,1.13
2023-01-19T12:42:29.550Z,1.42
2023-01-19T12:45:12.243Z,1.83
2023-01-19T12:47:39.421Z,1.83
2023-01-19T12:50:17.080Z,1.23
2023-01-19T12:52:51.726Z,1.15
2023-01-19T12:55:26.258Z,1.30
2023-01-19T12:57:59.108Z,1.80
2023-01-19T13:00:25.889Z,1.23
2023-01-19T13:02:54.833Z,1.08
2023-01-19T13:05:39.674Z,0.90
2023-01-19T13:08:06.819Z,1.30
2023-01-19T13:11:10.884Z,1.60
2023-01-19T13:13:45.165Z,2.03
2023-01-19T13:16:21.535Z,1.45
2023-01-19T13:18:53.327Z,0.98
2023-01-19T13:21:34.327Z,0.88
2023-01-19T13:24:03.975Z,1.10
2023-01-19T13:26:38.584Z,1.23
2023-01-19T13:29:25.724Z,3.75
2023-01-19T13:32:02.537Z,1.02
2023-01-19T13:34:46.819Z,0.88
2023-01-19T13:37:21.065Z,1.17
2023-01-19T13:39:51.405Z,0.93
2023-01-19T13:42:30.941Z,0.90
2023-01-19T13:45:02.275Z,0.80
2023-01-19T13:47:43.522Z,0.73
2023-01-19T13:50:21.285Z,1.02
2023-01-19T13:52:49.243Z,1.05
2023-01-19T13:55:16.673Z,1.10
2023-01-19T13:57:45.628Z,0.93
2023-01-19T14:00:12.808Z,0.75
2023-01-19T14:03:18.728Z,1.02
2023-01-19T14:05:46.138Z,1.08
2023-01-19T14:08:15.379Z,0.98
2023-01-19T14:11:02.284Z,1.17
2023-01-19T14:13:36.959Z,1.17
2023-01-19T14:16:13.912Z,1.08
2023-01-19T14:18:40.998Z,0.90
2023-01-19T14:21:15.740Z,0.57
2023-01-19T14:23:51.497Z,0.90
2023-01-19T14:26:51.478Z,0.68
2023-01-19T14:29:32.589Z,0.70
2023-01-19T14:32:02.546Z,0.70
2023-01-19T14:34:40.101Z,0.50
2023-01-19T14:37:32.943Z,0.90
2023-01-19T14:40:08.384Z,0.80
2023-01-19T14:42:43.569Z,0.70
2023-01-19T14:45:34.899Z,1.00
2023-01-19T14:48:20.594Z,0.80
2023-01-19T14:51:02.413Z,1.00
2023-01-19T14:53:38.803Z,0.45
2023-01-19T14:56:06.979Z,0.80
2023-01-19T14:58:35.291Z,0.50
2023-01-19T15:01:03.164Z,1.07
2023-01-19T15:03:44.845Z,1.08
2023-01-19T15:06:21.598Z,1.00
2023-01-19T15:08:50.447Z,1.08
2023-01-19T15:11:31.477Z,1.02
2023-01-19T15:13:59.336Z,0.98
2023-01-19T15:16:29.290Z,0.65
2023-01-19T15:18:56.186Z,1.08
2023-01-19T15:21:23.875Z,1.33
2023-01-19T15:23:50.790Z,0.63
2023-01-19T15:26:20.995Z,0.90
2023-01-19T15:28:51.172Z,1.80
2023-01-19T15:31:20.784Z,0.68
2023-01-19T15:33:47.973Z,0.63
2023-01-19T15:36:24.549Z,0.77
2023-01-19T15:38:51.591Z,1.30
2023-01-19T15:41:26.370Z,1.05
2023-01-19T15:43:53.672Z,0.70
2023-01-19T15:46:21.812Z,0.60
2023-01-19T15:48:49.533Z,0.77
2023-01-19T15:51:19.318Z,0.90
2023-01-19T15:53:47.192Z,0.80
2023-01-19T15:56:19.564Z,0.50
2023-01-19T15:58:46.463Z,0.88
2023-01-19T16:01:15.988Z,0.77
2023-01-19T16:03:43.291Z,0.70
2023-01-19T16:06:10.537Z,1.50
2023-01-19T16:08:37.949Z,1.25
2023-01-19T16:11:07.608Z,1.38
2023-01-19T16:13:34.925Z,0.73
2023-01-19T16:16:06.013Z,0.90
2023-01-19T16:18:32.927Z,0.80
2023-01-19T16:21:00.497Z,0.82
2023-01-19T16:23:27.479Z,1.00
2023-01-19T16:26:08.072Z,0.57
2023-01-19T16:28:37.271Z,0.70
2023-01-19T16:31:04.530Z,0.50
2023-01-19T16:33:31.445Z,0.30
2023-01-19T16:35:58.402Z,0.20
2023-01-19T16:38:25.363Z,0.73
2023-01-19T16:40:52.189Z,0.50
2023-01-19T16:43:19.065Z,0.65
2023-01-19T16:46:02.934Z,0.95
2023-01-19T16:48:31.904Z,0.60
2023-01-19T16:51:06.586Z,0.35
2023-01-19T16:53:37.232Z,0.20
2023-01-19T16:56:08.398Z,0.93
2023-01-19T16:58:38.469Z,0.40
2023-01-19T17:01:19.757Z,0.70
2023-01-19T17:03:47.090Z,2.83
2023-01-19T17:06:18.277Z,0.90
2023-01-19T17:08:45.218Z,1.10
2023-01-19T17:11:23.868Z,0.70
2023-01-19T17:13:54.743Z,1.40
2023-01-19T17:16:22.704Z,1.93
2023-01-19T17:18:50.164Z,1.07
2023-01-19T17:21:20.207Z,1.10
2023-01-19T17:23:49.469Z,0.80
2023-01-19T17:26:16.937Z,0.95
2023-01-19T17:28:44.253Z,1.30
2023-01-19T17:31:12.302Z,1.87
2023-01-19T17:33:39.712Z,3.63
2023-01-19T17:36:09.705Z,3.77
2023-01-19T17:38:37.109Z,1.20
2023-01-19T17:41:14.868Z,2.47
2023-01-19T17:43:41.867Z,1.33
2023-01-19T17:46:08.997Z,3.60
2023-01-19T17:48:35.875Z,1.80
2023-01-19T17:51:03.888Z,2.23
2023-01-19T17:53:30.803Z,2.70
2023-01-19T17:56:10.527Z,3.60
2023-01-19T17:58:38.627Z,4.55
2023-01-19T18:01:13.879Z,9.60
2023-01-19T18:03:41.658Z,11.00
2023-01-19T18:06:09.249Z,1.77
2023-01-19T18:08:38.940Z,3.07
2023-01-19T18:11:06.415Z,1.73
2023-01-19T18:13:33.398Z,2.87
2023-01-19T18:16:09.501Z,1.20
2023-01-19T18:18:37.263Z,1.50
2023-01-19T18:21:08.181Z,2.80
2023-01-19T18:23:35.689Z,5.30
2023-01-19T18:26:08.544Z,2.07
2023-01-19T18:28:35.520Z,2.60
2023-01-19T18:31:03.074Z,1.00
2023-01-19T18:33:31.522Z,1.63
2023-01-19T18:35:58.362Z,1.80
2023-01-19T18:38:25.247Z,1.17
2023-01-19T18:41:11.067Z,0.30
2023-01-19T18:43:38.831Z,0.40
2023-01-19T18:46:05.957Z,0.53
2023-01-19T18:48:33.169Z,0.50
2023-01-19T18:51:04.812Z,0.20
2023-01-19T18:53:32.191Z,0.50
2023-01-19T18:56:02.046Z,0.20
2023-01-19T18:58:30.135Z,0.30
2023-01-19T19:00:58.341Z,1.83
2023-01-19T19:03:25.768Z,0.50
2023-01-19T19:05:52.702Z,0.20
2023-01-19T19:08:19.627Z,0.20
2023-01-19T19:10:46.854Z,0.20
2023-01-19T19:13:15.542Z,0.10
2023-01-19T19:15:44.562Z,0.40
2023-01-19T19:18:14.236Z,0.22
2023-01-19T19:20:42.368Z,0.30
2023-01-19T19:23:13.249Z,0.50
2023-01-19T19:25:40.233Z,0.87
2023-01-19T19:28:09.786Z,0.13
2023-01-19T19:33:08.117Z,0.30
2023-01-19T19:35:34.967Z,0.30
2023-01-19T19:38:01.864Z,0.10
2023-01-19T19:40:29.680Z,0.23
2023-01-19T19:42:59.463Z,0.20
2023-01-19T19:45:26.414Z,0.10
2023-01-19T19:47:53.308Z,0.00
2023-01-19T19:50:20.310Z,0.07
2023-01-19T19:52:47.244Z,0.10
2023-01-19T19:55:14.263Z,0.13
2023-01-19T19:57:41.192Z,0.20
2023-01-19T20:00:09.869Z,0.17
2023-01-19T20:02:37.677Z,0.20
2023-01-19T20:05:05.813Z,0.20
2023-01-19T20:07:34.701Z,0.40
2023-01-19T20:10:02.039Z,0.38
2023-01-19T20:12:29.069Z,0.40
2023-01-19T20:14:56.158Z,0.00
2023-01-19T20:17:25.011Z,0.07
2023-01-19T20:19:52.842Z,0.08
2023-01-19T20:22:19.717Z,0.00
2023-01-19T20:24:46.775Z,0.00
2023-01-19T20:27:13.927Z,0.00
2023-01-19T20:29:41.171Z,0.00
2023-01-19T20:32:08.364Z,0.00
2023-01-19T20:34:35.816Z,0.00
2023-01-19T20:37:04.845Z,0.10
2023-01-19T20:39:33.618Z,0.20
2023-01-19T20:42:01.364Z,0.10
2023-01-19T20:44:28.633Z,0.10
2023-01-19T20:46:56.368Z,0.00
2023-01-19T20:49:23.335Z,0.20
2023-01-19T20:51:52.206Z,0.17
2023-01-19T20:54:21.977Z,0.20
2023-01-19T20:56:49.081Z,0.13
2023-01-19T20:59:16.322Z,0.10
2023-01-19T21:01:43.954Z,0.20
2023-01-19T21:04:12.042Z,0.40
2023-01-19T21:06:39.520Z,0.10
2023-01-19T21:09:07.478Z,0.40
2023-01-19T21:11:35.632Z,0.20
2023-01-19T21:14:02.750Z,0.20
2023-01-19T21:16:32.266Z,0.53
2023-01-19T21:18:59.726Z,0.37
2023-01-19T21:21:31.632Z,0.10
2023-01-19T21:24:03.326Z,0.83
2023-01-19T21:26:31.835Z,0.20
2023-01-19T21:29:00.122Z,0.10
2023-01-19T21:31:28.081Z,0.40
2023-01-19T21:33:56.351Z,0.30
2023-01-19T21:36:24.825Z,0.30
2023-01-19T21:38:52.627Z,0.30
2023-01-19T21:41:19.968Z,0.20
2023-01-19T21:43:47.624Z,0.10
2023-01-19T21:46:20.026Z,0.20
2023-01-19T21:48:47.346Z,0.13
2023-01-19T21:51:15.608Z,0.20
2023-01-19T21:53:42.882Z,0.10
2023-01-19T21:56:11.229Z,0.10
2023-01-19T21:58:39.044Z,0.10
2023-01-19T22:01:13.795Z,0.10
2023-01-19T22:03:41.310Z,0.10
2023-01-19T22:06:10.793Z,0.20
2023-01-19T22:08:38.197Z,0.10
2023-01-19T22:11:12.543Z,0.40
2023-01-19T22:13:39.957Z,0.90
2023-01-19T22:16:10.585Z,0.60
2023-01-19T22:18:42.414Z,0.70
2023-01-19T22:21:17.953Z,0.70
2023-01-19T22:23:48.978Z,1.43
2023-01-19T22:26:16.102Z,2.43
2023-01-19T22:28:43.258Z,2.37
2023-01-19T22:31:12.925Z,2.93
2023-01-19T22:33:39.915Z,1.73
2023-01-19T22:36:28.779Z,2.23
2023-01-19T22:38:58.290Z,1.08
2023-01-19T22:43:56.880Z,3.37
2023-01-19T22:46:26.369Z,3.50
2023-01-19T22:51:21.885Z,3.53
2023-01-19T22:53:49.041Z,3.28
2023-01-19T22:56:27.476Z,4.63
2023-01-19T22:58:55.039Z,4.73
2023-01-19T23:01:30.258Z,5.33
2023-01-19T23:03:57.389Z,6.60
2023-01-19T23:06:26.673Z,7.67
2023-01-19T23:08:58.918Z,8.93
2023-01-19T23:11:35.435Z,8.63
2023-01-19T23:14:04.019Z,8.33
2023-01-19T23:16:30.959Z,7.33
2023-01-19T23:18:58.460Z,7.47
2023-01-19T23:21:27.893Z,7.70
2023-01-19T23:26:23.897Z,8.20
2023-01-19T23:29:00.034Z,8.20
2023-01-19T23:31:30.048Z,10.63
2023-01-19T23:33:59.440Z,12.53
2023-01-19T23:36:28.942Z,13.50
2023-01-19T23:38:58.210Z,6.90
2023-01-19T23:41:26.457Z,3.75
2023-01-19T23:43:53.353Z,1.57
2023-01-19T23:46:20.907Z,0.20
2023-01-19T23:48:50.928Z,0.10
2023-01-19T23:51:23.336Z,0.10
2023-01-19T23:53:50.715Z,0.10
2023-01-19T23:56:20.355Z,0.10
2023-01-19T23:58:58.415Z,0.10
